Time;durP1;ratioP1;P1;durP2;ratioP2;P2;SDS_P1;SDS_P2;PMS_P1;PMS_P2;Temp;Humidity;BMP_temperature;BMP_pressure;BME280_temperature;BME280_humidity;BME280_pressure;Samples;Min_cycle;Max_cycle;Signal;HPM_P1;HPM_P2
2023/04/14 00:01:28;;;;;;;;;;;;;;;27.87;26.32;99996.50;5047081;28;1036;-29
2023/04/14 00:03:54;;;;;;;;;;;;;;;27.54;27.30;99997.25;5055578;28;1122;-27
2023/04/14 00:06:20;;;;;;;;;;;;;;;27.53;27.14;100000.97;5056084;28;1898;-28
2023/04/14 00:08:45;;;;;;;;;;;;;;;27.13;27.46;100005.19;5042038;28;1020;-28
2023/04/14 00:11:11;;;;;;;;;;;;;;;27.38;27.15;99998.41;5045119;28;865;-29
2023/04/14 00:13:36;;;;;;;;;;;;;;;27.91;26.39;99996.06;5053073;28;1103;-28
2023/04/14 00:16:02;;;;;;;;;;;;;;;27.38;27.13;99999.25;5059203;28;1134;-25
2023/04/14 00:18:27;;;;;;;;;;;;;;;27.49;27.27;99997.00;5058087;28;1250;-27
2023/04/14 00:20:53;;;;;;;;;;;;;;;27.32;27.37;99993.84;5060102;28;1143;-28
2023/04/14 00:23:19;;;;;;;;;;;;;;;27.61;26.75;100000.75;5055555;28;1135;-27
2023/04/14 00:25:45;;;;;;;;;;;;;;;27.75;26.88;100000.81;5049858;28;1099;-27
2023/04/14 00:28:10;;;;;;;;;;;;;;;27.68;26.34;99999.94;5059003;28;2039;-28
2023/04/14 00:30:36;;;;;;;;;;;;;;;27.12;27.65;100008.09;5059559;28;1070;-31
2023/04/14 00:33:01;;;;;;;;;;;;;;;27.24;27.42;100002.97;5059334;28;1253;-28
2023/04/14 00:35:29;;;;;;;;;;;;;;;27.63;26.46;100006.81;5058771;28;948;-31
2023/04/14 00:37:57;;;;;;;;;;;;;;;27.57;27.23;100004.09;5058062;28;1435;-29
2023/04/14 00:40:22;;;;;;;;;;;;;;;27.44;26.58;100000.34;5048636;28;1167;-28
2023/04/14 00:42:49;;;;;;;;;;;;;;;27.15;27.73;100005.00;5071822;28;1135;-28
2023/04/14 00:45:15;;;;;;;;;;;;;;;27.18;27.77;99995.66;5074305;28;1106;-27
2023/04/14 00:47:41;;;;;;;;;;;;;;;27.65;26.49;99995.78;5070748;28;1972;-29
2023/04/14 00:50:08;;;;;;;;;;;;;;;27.53;26.88;99997.44;5049600;28;1043;-27
2023/04/14 00:52:33;;;;;;;;;;;;;;;27.54;26.58;99993.69;5074112;28;1130;-31
2023/04/14 00:55:00;;;;;;;;;;;;;;;27.21;27.61;99990.69;5057443;28;1047;-29
2023/04/14 00:57:26;;;;;;;;;;;;;;;27.35;27.28;99988.03;5074001;28;1312;-30
2023/04/14 00:59:52;;;;;;;;;;;;;;;27.81;26.74;99982.97;5058284;28;1120;-27
2023/04/14 01:02:18;;;;;;;;;;;;;;;27.52;27.24;99983.09;5058900;28;1167;-27
2023/04/14 01:04:43;;;;;;;;;;;;;;;27.29;27.36;99983.44;5058876;28;1123;-27
2023/04/14 01:07:09;;;;;;;;;;;;;;;27.13;27.83;99980.91;5058282;28;1901;-31
2023/04/14 01:09:36;;;;;;;;;;;;;;;27.42;27.41;99979.94;5041130;28;1239;-28
2023/04/14 01:12:15;;;;;;;;;;;;;;;27.91;26.62;99983.38;5041027;28;961;-28
2023/04/14 01:14:42;;;;;;;;;;;;;;;27.40;27.28;99972.06;5051538;28;1040;-27
2023/04/14 01:17:28;;;;;;;;;;;;;;;27.43;27.15;99977.03;5073514;28;1087;-32
2023/04/14 01:20:04;;;;;;;;;;;;;;;27.37;27.30;99973.31;5050145;28;1463;-28
2023/04/14 01:22:30;;;;;;;;;;;;;;;27.68;26.74;99976.50;5073563;28;1206;-27
2023/04/14 01:25:13;;;;;;;;;;;;;;;27.56;27.18;99978.13;5043135;28;1115;-31
2023/04/14 01:27:51;;;;;;;;;;;;;;;27.12;27.31;99971.16;5056316;28;1906;-29
2023/04/14 01:30:20;;;;;;;;;;;;;;;27.08;27.78;99974.44;5058493;28;1056;-28
2023/04/14 01:32:46;;;;;;;;;;;;;;;27.35;27.40;99969.97;5056990;28;1170;-26
2023/04/14 01:35:12;;;;;;;;;;;;;;;27.66;26.33;99978.53;5056780;28;914;-27
2023/04/14 01:37:45;;;;;;;;;;;;;;;27.42;27.04;99972.69;5056668;28;1179;-30
2023/04/14 01:40:12;;;;;;;;;;;;;;;27.43;26.87;99982.44;5057040;28;1274;-29
2023/04/14 01:42:39;;;;;;;;;;;;;;;27.09;27.61;99987.72;5073423;28;1560;-29
2023/04/14 01:45:14;;;;;;;;;;;;;;;27.29;27.24;99986.16;5056858;28;1122;-29
2023/04/14 01:47:42;;;;;;;;;;;;;;;27.73;26.47;99990.22;5056101;28;1905;-29
2023/04/14 01:50:07;;;;;;;;;;;;;;;27.35;27.14;99988.88;5040022;28;1242;-28
2023/04/14 01:52:33;;;;;;;;;;;;;;;27.44;27.03;99989.53;5056574;28;1207;-28
2023/04/14 01:55:04;;;;;;;;;;;;;;;27.28;27.30;99990.72;5040182;28;1238;-29
2023/04/14 01:57:30;;;;;;;;;;;;;;;27.55;26.72;99982.69;5057142;28;1092;-28
2023/04/14 01:59:56;;;;;;;;;;;;;;;27.81;26.46;99977.56;5056435;28;1468;-29
2023/04/14 02:02:22;;;;;;;;;;;;;;;27.67;26.84;99972.09;5073039;28;1311;-28
2023/04/14 02:04:47;;;;;;;;;;;;;;;27.39;27.15;99975.78;5057945;28;1003;-28
2023/04/14 02:07:16;;;;;;;;;;;;;;;26.59;27.34;99869.19;5072920;28;1981;-29
2023/04/14 02:09:42;;;;;;;;;;;;;;;27.51;26.78;99971.44;5056287;28;1223;-28
2023/04/14 02:12:08;;;;;;;;;;;;;;;27.92;26.13;99960.72;5067275;28;1237;-29
2023/04/14 02:14:33;;;;;;;;;;;;;;;27.68;26.80;99957.59;5036443;28;1231;-28
2023/04/14 02:17:01;;;;;;;;;;;;;;;27.40;26.76;99966.66;5071207;28;1122;-28
2023/04/14 02:19:26;;;;;;;;;;;;;;;27.22;27.58;99965.38;5055617;28;1055;-29
2023/04/14 02:21:52;;;;;;;;;;;;;;;27.61;26.64;99967.53;5057673;28;1139;-29
2023/04/14 02:24:18;;;;;;;;;;;;;;;27.69;26.75;99956.56;5055939;28;913;-31
2023/04/14 02:26:53;;;;;;;;;;;;;;;27.43;26.97;99954.59;5057037;28;1971;-31
2023/04/14 02:29:20;;;;;;;;;;;;;;;27.33;27.04;99950.44;5072285;28;1250;-29
2023/04/14 02:31:48;;;;;;;;;;;;;;;27.27;27.37;99948.56;5036007;28;1293;-29
2023/04/14 02:34:14;;;;;;;;;;;;;;;27.60;27.00;99952.34;5049136;28;1230;-27
2023/04/14 02:36:47;;;;;;;;;;;;;;;27.78;26.30;99950.97;5043754;28;889;-30
2023/04/14 02:39:16;;;;;;;;;;;;;;;27.41;27.23;99954.00;5042392;28;1049;-28
2023/04/14 02:41:43;;;;;;;;;;;;;;;27.25;27.26;99956.00;5055529;28;1055;-30
2023/04/14 02:44:17;;;;;;;;;;;;;;;27.21;27.17;99958.28;5054926;28;1067;-27
2023/04/14 02:46:45;;;;;;;;;;;;;;;27.60;26.69;99974.78;5053480;28;1902;-28
2023/04/14 02:49:11;;;;;;;;;;;;;;;27.45;26.85;99960.63;5038462;28;1041;-28
2023/04/14 02:51:37;;;;;;;;;;;;;;;26.90;26.31;99962.28;5027508;28;1373;-29
2023/04/14 02:54:03;;;;;;;;;;;;;;;26.75;27.27;99963.28;5055708;28;1265;-28
2023/04/14 02:56:38;;;;;;;;;;;;;;;27.00;26.87;99968.16;5055670;28;1147;-25
2023/04/14 02:59:04;;;;;;;;;;;;;;;27.31;25.73;99966.00;5034986;28;1316;-29
2023/04/14 03:01:31;;;;;;;;;;;;;;;26.17;25.75;99962.44;5050250;28;1160;-27
2023/04/14 03:03:58;;;;;;;;;;;;;;;25.91;26.29;99963.91;5063992;28;1197;-27
2023/04/14 03:06:25;;;;;;;;;;;;;;;26.78;26.34;99964.72;5026231;28;1906;-26
2023/04/14 03:08:50;;;;;;;;;;;;;;;27.06;25.73;99958.44;5071980;28;1282;-28
2023/04/14 03:11:18;;;;;;;;;;;;;;;27.05;25.31;99959.47;5055037;28;1208;-29
2023/04/14 03:13:44;;;;;;;;;;;;;;;25.73;26.15;99958.16;5054385;28;1266;-29
2023/04/14 03:16:10;;;;;;;;;;;;;;;25.65;26.60;99959.97;5035372;28;1389;-28
2023/04/14 03:18:36;;;;;;;;;;;;;;;26.60;25.61;99970.66;5036096;28;1441;-28
2023/04/14 03:21:02;;;;;;;;;;;;;;;26.80;25.40;99959.97;5047490;28;1312;-27
2023/04/14 03:23:29;;;;;;;;;;;;;;;25.66;25.77;99953.53;5055664;28;1350;-27
2023/04/14 03:25:58;;;;;;;;;;;;;;;25.39;25.72;99961.31;5060319;28;1520;-27
2023/04/14 03:28:29;;;;;;;;;;;;;;;26.27;25.97;99959.44;5044920;28;1917;-27
2023/04/14 03:30:56;;;;;;;;;;;;;;;26.78;24.96;99962.03;5055491;28;1266;-28
2023/04/14 03:33:23;;;;;;;;;;;;;;;26.90;24.79;99963.13;5038426;28;1439;-26
2023/04/14 03:35:51;;;;;;;;;;;;;;;25.64;25.43;99960.16;5069427;28;1153;-26
2023/04/14 03:38:18;;;;;;;;;;;;;;;25.06;26.14;99961.75;5060359;28;1206;-30
2023/04/14 03:40:46;;;;;;;;;;;;;;;26.17;25.09;99956.25;5054386;28;2024;-26
2023/04/14 03:43:18;;;;;;;;;;;;;;;26.05;24.71;99953.25;5071178;28;1286;-26
2023/04/14 03:45:48;;;;;;;;;;;;;;;26.19;24.26;99951.50;5035770;28;1354;-26
2023/04/14 03:48:16;;;;;;;;;;;;;;;26.42;23.61;99958.53;5061751;28;1922;-26
2023/04/14 03:50:45;;;;;;;;;;;;;;;25.21;24.63;99963.59;5041408;28;1129;-28
2023/04/14 03:53:13;;;;;;;;;;;;;;;24.74;25.56;99963.81;5030026;28;1266;-27
2023/04/14 03:55:39;;;;;;;;;;;;;;;25.95;25.04;99975.13;5039064;28;1299;-29
2023/04/14 03:58:05;;;;;;;;;;;;;;;26.69;24.24;99977.56;5038850;28;1282;-28
2023/04/14 04:00:31;;;;;;;;;;;;;;;25.94;23.82;99976.19;5053245;28;1284;-27
2023/04/14 04:02:57;;;;;;;;;;;;;;;24.41;25.75;99978.44;5046951;28;1358;-26
2023/04/14 04:05:22;;;;;;;;;;;;;;;25.33;25.92;99982.75;5056494;28;1179;-28
2023/04/14 04:07:51;;;;;;;;;;;;;;;25.96;25.29;99981.38;5058630;28;1913;-26
2023/04/14 04:10:17;;;;;;;;;;;;;;;25.91;24.90;99985.47;5059439;28;1174;-27
2023/04/14 04:12:42;;;;;;;;;;;;;;;26.30;24.93;99985.16;5047108;28;857;-25
2023/04/14 04:15:08;;;;;;;;;;;;;;;26.64;24.74;99986.22;5040725;28;1357;-24
2023/04/14 04:17:35;;;;;;;;;;;;;;;27.09;23.72;99984.22;5058183;28;1404;-26
2023/04/14 04:20:04;;;;;;;;;;;;;;;25.98;25.90;99987.38;5042107;28;1243;-27
2023/04/14 04:22:30;;;;;;;;;;;;;;;26.64;25.38;99983.53;5041792;28;1322;-28
2023/04/14 04:24:56;;;;;;;;;;;;;;;27.26;24.49;99987.38;5068951;28;1467;-25
2023/04/14 04:27:27;;;;;;;;;;;;;;;25.76;26.36;99974.75;5068254;28;1910;-27
2023/04/14 04:29:53;;;;;;;;;;;;;;;25.58;27.09;99974.34;5041898;28;1291;-27
2023/04/14 04:32:19;;;;;;;;;;;;;;;26.69;25.66;99979.41;5041668;28;1210;-24
2023/04/14 04:34:46;;;;;;;;;;;;;;;27.02;25.55;99981.47;5057801;28;1155;-24
2023/04/14 04:37:11;;;;;;;;;;;;;;;27.34;25.00;99976.38;5058006;28;1213;-26
2023/04/14 04:39:37;;;;;;;;;;;;;;;26.27;26.41;99981.00;5058024;28;1118;-27
2023/04/14 04:42:03;;;;;;;;;;;;;;;25.58;26.64;99991.34;5058131;28;1306;-25
2023/04/14 04:44:30;;;;;;;;;;;;;;;26.78;25.59;99989.00;5074318;28;1110;-25
2023/04/14 04:46:56;;;;;;;;;;;;;;;27.30;25.18;99983.25;5074563;28;1963;-27
2023/04/14 04:49:25;;;;;;;;;;;;;;;26.20;26.41;99984.66;5058644;28;1071;-27
2023/04/14 04:51:52;;;;;;;;;;;;;;;26.10;26.79;99982.31;5074652;28;1327;-24
2023/04/14 04:54:18;;;;;;;;;;;;;;;27.18;25.53;99976.75;5074377;28;1138;-25
2023/04/14 04:56:44;;;;;;;;;;;;;;;27.16;25.21;99982.34;5058749;28;1074;-26
2023/04/14 04:59:09;;;;;;;;;;;;;;;26.43;26.02;99976.34;5058962;28;1157;-24
2023/04/14 05:01:35;;;;;;;;;;;;;;;26.73;26.29;99972.59;5058625;28;813;-26
2023/04/14 05:04:01;;;;;;;;;;;;;;;27.25;25.36;99975.75;5059751;28;1074;-24
2023/04/14 05:06:27;;;;;;;;;;;;;;;26.43;26.20;99967.41;5059320;28;1902;-26
2023/04/14 05:08:52;;;;;;;;;;;;;;;26.56;26.41;99972.91;5058675;28;1063;-28
2023/04/14 05:11:18;;;;;;;;;;;;;;;27.04;26.04;99967.78;5058730;28;1095;-27
2023/04/14 05:13:43;;;;;;;;;;;;;;;27.32;25.59;99967.69;5052780;28;1178;-25
2023/04/14 05:16:09;;;;;;;;;;;;;;;26.66;26.32;99967.16;5051307;28;1131;-25
2023/04/14 05:18:35;;;;;;;;;;;;;;;26.31;26.70;99962.56;5057395;28;1076;-26
2023/04/14 05:21:04;;;;;;;;;;;;;;;27.02;26.69;99966.13;5058691;28;1043;-25
2023/04/14 05:23:33;;;;;;;;;;;;;;;26.81;26.13;99972.41;5058396;28;1127;-23
2023/04/14 05:25:59;;;;;;;;;;;;;;;26.69;26.74;99972.16;5058060;28;920;-24
2023/04/14 05:28:24;;;;;;;;;;;;;;;26.58;26.83;99970.84;5058306;28;1914;-25
2023/04/14 05:30:50;;;;;;;;;;;;;;;26.52;26.91;99968.94;5058329;28;1055;-25
2023/04/14 05:33:16;;;;;;;;;;;;;;;26.52;26.84;99974.34;5058338;28;1067;-25
2023/04/14 05:35:43;;;;;;;;;;;;;;;26.49;27.01;99970.16;5058039;28;1146;-24
2023/04/14 05:38:09;;;;;;;;;;;;;;;26.47;27.21;99977.63;5056715;28;909;-25
2023/04/14 05:40:34;;;;;;;;;;;;;;;26.75;26.86;99976.75;5058261;28;1087;-24
2023/04/14 05:43:00;;;;;;;;;;;;;;;26.55;27.08;99981.19;5058047;28;1202;-26
2023/04/14 05:45:26;;;;;;;;;;;;;;;26.67;26.92;99968.84;5058116;28;1075;-28
2023/04/14 05:47:51;;;;;;;;;;;;;;;26.62;27.16;99968.59;5057929;28;1910;-24
2023/04/14 05:50:17;;;;;;;;;;;;;;;26.61;27.14;99978.53;5057865;28;950;-23
2023/04/14 05:52:42;;;;;;;;;;;;;;;26.70;27.05;99976.53;5057950;28;1151;-24
2023/04/14 05:55:08;;;;;;;;;;;;;;;26.59;27.00;99969.81;5057921;28;1169;-24
2023/04/14 05:57:34;;;;;;;;;;;;;;;26.65;27.74;99970.88;5057448;28;1039;-26
2023/04/14 06:00:00;;;;;;;;;;;;;;;26.44;27.39;99967.25;5057800;28;1024;-24
2023/04/14 06:02:25;;;;;;;;;;;;;;;26.75;27.28;99973.22;5043886;28;873;-24
2023/04/14 06:04:51;;;;;;;;;;;;;;;26.89;26.96;99969.56;5057471;28;1147;-26
2023/04/14 06:07:16;;;;;;;;;;;;;;;27.05;27.28;99964.88;5057064;28;1914;-23
2023/04/14 06:09:42;;;;;;;;;;;;;;;26.95;26.59;99959.00;5057790;28;1167;-30
2023/04/14 06:12:08;;;;;;;;;;;;;;;26.99;26.70;99962.97;5056611;28;1086;-26
2023/04/14 06:14:33;;;;;;;;;;;;;;;26.81;27.55;99958.94;5057851;28;1071;-26
2023/04/14 06:16:59;;;;;;;;;;;;;;;26.98;27.30;99959.44;5057406;28;1038;-24
2023/04/14 06:19:25;;;;;;;;;;;;;;;26.14;27.97;99956.63;5057217;28;1124;-26
2023/04/14 06:21:51;;;;;;;;;;;;;;;26.28;27.72;99954.84;5057329;28;1039;-27
2023/04/14 06:24:16;;;;;;;;;;;;;;;26.69;27.33;99952.44;5056886;28;1031;-24
2023/04/14 06:26:42;;;;;;;;;;;;;;;26.53;27.46;99957.97;5057130;28;1909;-26
2023/04/14 06:29:07;;;;;;;;;;;;;;;26.73;27.25;99956.41;5057466;28;1420;-27
2023/04/14 06:31:33;;;;;;;;;;;;;;;26.60;27.26;99952.59;5057320;28;1143;-27
2023/04/14 06:33:59;;;;;;;;;;;;;;;26.90;27.77;99954.19;5057207;28;1111;-25
2023/04/14 06:36:25;;;;;;;;;;;;;;;26.89;26.98;99947.97;5056582;28;1059;-25
2023/04/14 06:38:51;;;;;;;;;;;;;;;26.62;27.79;99961.34;5045408;28;1016;-26
2023/04/14 06:41:17;;;;;;;;;;;;;;;26.78;27.39;99954.78;5055537;28;1055;-25
2023/04/14 06:43:42;;;;;;;;;;;;;;;26.81;27.38;99955.41;5057108;28;1135;-26
2023/04/14 06:46:08;;;;;;;;;;;;;;;27.18;26.87;99957.84;5052023;28;1146;-25
2023/04/14 06:48:33;;;;;;;;;;;;;;;26.16;27.46;99963.50;5048540;28;1906;-26
2023/04/14 06:50:59;;;;;;;;;;;;;;;26.76;27.60;99970.31;5038428;28;1074;-25
2023/04/14 06:53:25;;;;;;;;;;;;;;;26.34;27.63;99961.38;5048677;28;1127;-24
2023/04/14 06:55:57;;;;;;;;;;;;;;;26.79;27.53;99969.09;5056439;28;1111;-26
2023/04/14 06:58:24;;;;;;;;;;;;;;;26.39;27.82;99965.13;5056727;28;1181;-25
2023/04/14 07:00:56;;;;;;;;;;;;;;;26.29;27.78;99961.94;5056416;28;1190;-26
2023/04/14 07:03:21;;;;;;;;;;;;;;;26.61;27.24;99959.66;5043875;28;1035;-27
2023/04/14 07:05:47;;;;;;;;;;;;;;;26.52;27.80;99956.31;5043382;28;893;-23
2023/04/14 07:08:13;;;;;;;;;;;;;;;26.70;27.91;99959.50;5056567;28;1973;-26
2023/04/14 07:10:38;;;;;;;;;;;;;;;26.47;27.50;99945.28;5056148;28;1043;-23
2023/04/14 07:13:04;;;;;;;;;;;;;;;26.54;27.77;99948.00;5055937;28;1103;-23
2023/04/14 07:15:29;;;;;;;;;;;;;;;26.59;27.52;99950.13;5056518;28;1044;-25
2023/04/14 07:17:55;;;;;;;;;;;;;;;26.73;27.46;99946.44;5069629;28;1144;-27
2023/04/14 07:20:21;;;;;;;;;;;;;;;26.61;27.59;99951.56;5043031;28;1186;-25
2023/04/14 07:22:46;;;;;;;;;;;;;;;26.61;27.16;99946.16;5055992;28;1101;-30
2023/04/14 07:25:12;;;;;;;;;;;;;;;26.80;27.29;99938.38;5054761;28;1020;-26
2023/04/14 07:27:38;;;;;;;;;;;;;;;26.69;27.92;99942.50;5044218;28;1959;-26
2023/04/14 07:30:03;;;;;;;;;;;;;;;26.69;27.55;99947.88;5041565;28;1108;-27
2023/04/14 07:32:29;;;;;;;;;;;;;;;26.76;27.41;99945.19;5055988;28;1050;-25
2023/04/14 07:34:57;;;;;;;;;;;;;;;26.80;27.47;99943.78;5056377;28;1206;-26
2023/04/14 07:37:23;;;;;;;;;;;;;;;26.79;27.74;99950.22;5056057;28;1087;-27
2023/04/14 07:39:48;;;;;;;;;;;;;;;26.86;27.81;99942.16;5042247;28;1086;-28
2023/04/14 07:42:14;;;;;;;;;;;;;;;26.76;27.27;99935.25;5056142;28;1056;-24
2023/04/14 07:44:40;;;;;;;;;;;;;;;26.71;27.44;99942.28;5055768;28;1056;-26
2023/04/14 07:47:05;;;;;;;;;;;;;;;27.10;27.82;99948.06;5043844;28;1894;-25
2023/04/14 07:49:31;;;;;;;;;;;;;;;26.73;27.68;99941.06;5041440;28;1178;-27
2023/04/14 07:51:56;;;;;;;;;;;;;;;26.77;27.74;99925.28;5055894;28;1154;-25
2023/04/14 07:54:22;;;;;;;;;;;;;;;26.96;27.16;99928.28;5055964;28;1062;-25
2023/04/14 07:56:48;;;;;;;;;;;;;;;26.88;27.56;99919.31;5056155;28;1140;-25
2023/04/14 07:59:14;;;;;;;;;;;;;;;26.81;27.32;99914.94;5049598;28;1659;-25
2023/04/14 08:01:40;;;;;;;;;;;;;;;26.82;27.35;99916.59;5048155;28;1235;-24
2023/04/14 08:04:06;;;;;;;;;;;;;;;26.86;27.20;99912.47;5036964;28;1073;-25
2023/04/14 08:06:31;;;;;;;;;;;;;;;26.73;27.68;99911.38;5048420;28;1111;-26
2023/04/14 08:08:57;;;;;;;;;;;;;;;26.73;27.26;99913.22;5042485;28;1914;-25
2023/04/14 08:11:23;;;;;;;;;;;;;;;26.65;27.56;99912.38;5055807;28;1082;-26
2023/04/14 08:13:51;;;;;;;;;;;;;;;26.69;27.75;99914.69;5055639;28;1211;-25
2023/04/14 08:16:17;;;;;;;;;;;;;;;26.68;27.86;99913.00;5043211;28;1079;-24
2023/04/14 08:18:43;;;;;;;;;;;;;;;26.64;27.64;99904.50;5035905;28;1191;-25
2023/04/14 08:21:09;;;;;;;;;;;;;;;26.71;27.83;99902.63;5048923;28;1072;-25
2023/04/14 08:23:35;;;;;;;;;;;;;;;26.76;27.65;99902.88;5055460;28;1099;-25
2023/04/14 08:26:00;;;;;;;;;;;;;;;26.74;27.48;99901.44;5055293;28;1059;-26
2023/04/14 08:28:27;;;;;;;;;;;;;;;26.78;27.72;99900.81;5055265;28;1982;-25
2023/04/14 08:30:52;;;;;;;;;;;;;;;26.83;27.91;99910.16;5055669;28;1205;-26
2023/04/14 08:33:18;;;;;;;;;;;;;;;26.87;27.50;99900.63;5056039;28;1280;-27
2023/04/14 08:35:43;;;;;;;;;;;;;;;26.86;27.52;99901.69;5057495;28;1111;-26
2023/04/14 08:38:09;;;;;;;;;;;;;;;26.84;27.43;99887.56;5059070;28;1035;-25
2023/04/14 08:40:38;;;;;;;;;;;;;;;26.87;27.96;99896.09;5059572;28;1059;-25
2023/04/14 08:43:04;;;;;;;;;;;;;;;26.71;27.78;99891.84;5058991;28;1122;-29
2023/04/14 08:45:31;;;;;;;;;;;;;;;26.95;28.29;99896.91;5059264;28;1019;-23
2023/04/14 08:47:57;;;;;;;;;;;;;;;26.98;27.63;99896.50;5058984;28;1910;-24
2023/04/14 08:50:23;;;;;;;;;;;;;;;27.07;27.61;99895.34;5059013;28;1046;-24
2023/04/14 08:52:49;;;;;;;;;;;;;;;27.05;27.38;99889.31;5045737;28;1015;-26
2023/04/14 08:55:15;;;;;;;;;;;;;;;27.16;27.57;99890.56;5058116;28;1075;-29
2023/04/14 08:57:42;;;;;;;;;;;;;;;27.05;27.73;99896.56;5057480;28;1156;-26
2023/04/14 09:00:08;;;;;;;;;;;;;;;27.04;27.55;99884.94;5058616;28;1016;-23
2023/04/14 09:02:34;;;;;;;;;;;;;;;26.99;27.92;99885.50;5057243;28;1025;-26
2023/04/14 09:05:00;;;;;;;;;;;;;;;27.19;27.47;99876.69;5059019;28;1107;-25
2023/04/14 09:07:25;;;;;;;;;;;;;;;27.15;27.73;99880.81;5058751;28;1922;-26
2023/04/14 09:09:51;;;;;;;;;;;;;;;27.13;27.72;99890.97;5057692;28;1031;-26
2023/04/14 09:12:17;;;;;;;;;;;;;;;27.04;27.42;99884.94;5058643;28;1225;-26
2023/04/14 09:14:43;;;;;;;;;;;;;;;27.06;27.40;99884.75;5058503;28;1036;-24
2023/04/14 09:17:08;;;;;;;;;;;;;;;27.20;27.34;99883.72;5044864;28;1007;-28
2023/04/14 09:19:34;;;;;;;;;;;;;;;27.28;27.15;99873.78;5058665;28;1224;-26
2023/04/14 09:22:00;;;;;;;;;;;;;;;27.21;27.96;99884.56;5058231;28;1232;-27
2023/04/14 09:24:28;;;;;;;;;;;;;;;27.17;27.17;99876.03;5046297;28;1111;-30
2023/04/14 09:26:54;;;;;;;;;;;;;;;27.25;27.55;99866.91;5056166;28;1913;-29
2023/04/14 09:29:19;;;;;;;;;;;;;;;27.30;27.32;99860.88;5058734;28;1116;-26
2023/04/14 09:31:45;;;;;;;;;;;;;;;27.31;27.01;99866.06;5058304;28;1266;-28
2023/04/14 09:34:15;;;;;;;;;;;;;;;27.32;26.97;99858.81;5056701;28;1174;-25
2023/04/14 09:36:41;;;;;;;;;;;;;;;27.28;26.97;99853.00;5058512;28;1035;-25
2023/04/14 09:39:16;;;;;;;;;;;;;;;27.28;27.13;99863.00;5058192;28;1130;-26
2023/04/14 09:41:46;;;;;;;;;;;;;;;27.34;27.38;99857.56;5057984;28;1143;-26
2023/04/14 09:44:11;;;;;;;;;;;;;;;27.44;27.40;99861.75;5057894;28;1130;-25
2023/04/14 09:46:41;;;;;;;;;;;;;;;27.51;26.70;99866.09;5057078;28;1906;-26
2023/04/14 09:49:06;;;;;;;;;;;;;;;27.32;27.13;99853.41;5056388;28;1430;-28
2023/04/14 09:51:32;;;;;;;;;;;;;;;27.18;27.22;99857.97;5048180;28;854;-28
2023/04/14 09:54:02;;;;;;;;;;;;;;;27.21;27.09;99860.28;5053570;28;1193;-26
2023/04/14 09:56:27;;;;;;;;;;;;;;;27.43;27.15;99855.50;5058418;28;1128;-28
2023/04/14 09:58:55;;;;;;;;;;;;;;;27.39;27.10;99865.06;5057593;28;1157;-26
2023/04/14 10:01:21;;;;;;;;;;;;;;;27.38;27.11;99860.69;5057859;28;1238;-24
2023/04/14 10:03:47;;;;;;;;;;;;;;;27.18;27.44;99864.19;5053490;28;1230;-26
2023/04/14 10:06:16;;;;;;;;;;;;;;;27.32;27.52;99848.84;5048308;28;1044;-26
2023/04/14 10:08:43;;;;;;;;;;;;;;;27.22;27.65;99862.78;5057473;28;1902;-27
2023/04/14 10:11:15;;;;;;;;;;;;;;;27.35;27.41;99867.34;5057681;28;1031;-24
2023/04/14 10:13:41;;;;;;;;;;;;;;;27.46;27.22;99863.19;5057505;28;1186;-27
2023/04/14 10:16:08;;;;;;;;;;;;;;;27.37;27.46;99867.97;5044957;28;1066;-27
2023/04/14 10:18:34;;;;;;;;;;;;;;;27.33;27.60;99872.13;5057052;28;1076;-25
2023/04/14 10:21:00;;;;;;;;;;;;;;;27.43;27.43;99881.66;5057915;28;1056;-24
2023/04/14 10:23:26;;;;;;;;;;;;;;;27.45;27.22;99876.91;5057282;28;1146;-27
2023/04/14 10:25:51;;;;;;;;;;;;;;;27.62;27.25;99874.63;5057183;28;1123;-26
2023/04/14 10:28:17;;;;;;;;;;;;;;;27.82;26.79;99871.13;5056351;28;1922;-23
2023/04/14 10:30:43;;;;;;;;;;;;;;;27.68;26.94;99868.41;5068615;28;1198;-25
2023/04/14 10:33:08;;;;;;;;;;;;;;;27.70;26.89;99873.63;5041694;28;1189;-27
2023/04/14 10:35:40;;;;;;;;;;;;;;;27.73;26.93;99878.59;5047937;28;1081;-24
2023/04/14 10:38:06;;;;;;;;;;;;;;;27.66;26.92;99875.88;5056968;28;1147;-27
2023/04/14 10:40:44;;;;;;;;;;;;;;;27.62;27.64;99871.94;5044729;28;864;-24
2023/04/14 10:43:12;;;;;;;;;;;;;;;27.78;26.80;99872.59;5044244;28;1095;-25
2023/04/14 10:45:56;;;;;;;;;;;;;;;27.65;27.16;99871.50;5053258;28;1101;-26
2023/04/14 10:48:34;;;;;;;;;;;;;;;27.63;27.05;99863.63;5036796;28;1918;-24
2023/04/14 10:51:04;;;;;;;;;;;;;;;27.62;26.99;99877.34;5043162;28;1218;-27
2023/04/14 10:53:36;;;;;;;;;;;;;;;27.82;26.82;99865.72;5041019;28;1304;-25
2023/04/14 10:56:02;;;;;;;;;;;;;;;27.92;26.87;99862.56;5036897;28;1198;-23
2023/04/14 10:58:28;;;;;;;;;;;;;;;27.73;27.13;99855.13;5040971;28;1226;-24
2023/04/14 11:00:55;;;;;;;;;;;;;;;27.72;26.87;99861.56;5050018;28;1040;-28
2023/04/14 11:03:21;;;;;;;;;;;;;;;27.82;26.92;99858.44;5044856;28;1048;-27
2023/04/14 11:05:47;;;;;;;;;;;;;;;27.76;27.64;99859.25;5056347;28;955;-24
2023/04/14 11:08:13;;;;;;;;;;;;;;;27.60;27.41;99855.94;5048696;28;1921;-26
2023/04/14 11:10:40;;;;;;;;;;;;;;;27.69;27.39;99853.06;5051144;28;1044;-26
2023/04/14 11:13:07;;;;;;;;;;;;;;;27.70;27.39;99854.69;5056765;28;1114;-25
2023/04/14 11:15:51;;;;;;;;;;;;;;;27.49;27.79;99857.38;5056661;28;1015;-24
2023/04/14 11:18:19;;;;;;;;;;;;;;;27.43;27.54;99850.09;5056647;28;1143;-27
2023/04/14 11:20:44;;;;;;;;;;;;;;;27.27;28.27;99859.44;5053544;28;1044;-24
2023/04/14 11:23:15;;;;;;;;;;;;;;;27.66;27.43;99856.13;5046968;28;1056;-26
2023/04/14 11:25:40;;;;;;;;;;;;;;;27.75;27.40;99860.31;5044013;28;1140;-29
2023/04/14 11:28:06;;;;;;;;;;;;;;;27.93;27.64;99850.72;5044240;28;1905;-26
2023/04/14 11:30:32;;;;;;;;;;;;;;;28.13;27.14;99847.97;5036709;28;1215;-28
2023/04/14 11:32:58;;;;;;;;;;;;;;;28.05;27.19;99857.16;5036587;28;1218;-25
2023/04/14 11:35:24;;;;;;;;;;;;;;;27.85;27.05;99862.59;5036801;28;1102;-26
2023/04/14 11:37:54;;;;;;;;;;;;;;;28.05;27.05;99856.31;5036001;28;1198;-27
2023/04/14 11:40:20;;;;;;;;;;;;;;;27.97;27.22;99852.81;5049441;28;1060;-25
2023/04/14 11:42:46;;;;;;;;;;;;;;;27.86;27.59;99859.66;5036450;28;1159;-25
2023/04/14 11:45:14;;;;;;;;;;;;;;;27.97;27.15;99858.22;5042708;28;1210;-24
2023/04/14 11:47:45;;;;;;;;;;;;;;;27.95;26.89;99857.59;5056261;28;1910;-22
2023/04/14 11:50:11;;;;;;;;;;;;;;;27.85;27.19;99851.78;5055877;28;1532;-25
2023/04/14 11:52:42;;;;;;;;;;;;;;;27.83;27.52;99867.38;5055889;28;987;-24
2023/04/14 11:55:08;;;;;;;;;;;;;;;27.78;27.16;99872.59;5055929;28;1195;-26
2023/04/14 11:57:35;;;;;;;;;;;;;;;27.84;27.50;99872.56;5056385;28;1130;-26
2023/04/14 12:00:00;;;;;;;;;;;;;;;27.81;27.45;99866.75;5046211;28;1076;-25
2023/04/14 12:02:26;;;;;;;;;;;;;;;28.06;27.04;99869.63;5034977;28;1251;-23
2023/04/14 12:04:52;;;;;;;;;;;;;;;27.84;27.22;99869.03;5042763;28;973;-25
2023/04/14 12:07:18;;;;;;;;;;;;;;;27.76;27.29;99867.38;5035922;28;1979;-26
2023/04/14 12:09:44;;;;;;;;;;;;;;;27.71;27.35;99865.28;5046936;28;1121;-25
2023/04/14 12:12:10;;;;;;;;;;;;;;;27.75;27.14;99863.84;5059709;28;1094;-29
2023/04/14 12:14:37;;;;;;;;;;;;;;;27.84;27.10;99869.84;5059844;28;1126;-24
2023/04/14 12:17:03;;;;;;;;;;;;;;;27.85;27.55;99876.09;5046699;28;970;-25
2023/04/14 12:19:28;;;;;;;;;;;;;;;27.74;27.54;99880.28;5058969;28;1075;-26
2023/04/14 12:21:54;;;;;;;;;;;;;;;27.76;27.10;99878.19;5058457;28;1142;-25
2023/04/14 12:24:20;;;;;;;;;;;;;;;27.49;28.03;99880.88;5059916;28;1094;-23
2023/04/14 12:26:45;;;;;;;;;;;;;;;27.39;27.96;99873.97;5059465;28;1910;-23
2023/04/14 12:29:12;;;;;;;;;;;;;;;27.27;27.92;99870.25;5049785;28;971;-24
2023/04/14 12:31:40;;;;;;;;;;;;;;;27.13;28.16;99845.91;5039187;28;1146;-23
2023/04/14 12:34:06;;;;;;;;;;;;;;;27.13;28.61;99859.41;5048537;28;1153;-25
2023/04/14 12:36:32;;;;;;;;;;;;;;;27.19;28.17;99859.63;5059590;28;1271;-25
2023/04/14 12:39:03;;;;;;;;;;;;;;;27.35;28.16;99844.91;5059248;28;1202;-25
2023/04/14 12:41:29;;;;;;;;;;;;;;;27.43;28.35;99839.28;5050802;28;877;-27
2023/04/14 12:43:54;;;;;;;;;;;;;;;27.34;28.36;99838.66;5055013;28;1060;-26
2023/04/14 12:46:26;;;;;;;;;;;;;;;27.31;28.62;99843.66;5059522;28;1073;-26
2023/04/14 12:48:51;;;;;;;;;;;;;;;27.04;29.52;99847.16;5059586;28;1910;-25
2023/04/14 12:51:18;;;;;;;;;;;;;;;27.23;28.97;99839.28;5058923;28;1059;-26
2023/04/14 12:53:44;;;;;;;;;;;;;;;27.06;29.88;99842.38;5059454;28;1205;-25
2023/04/14 12:56:10;;;;;;;;;;;;;;;27.02;29.79;99833.88;5043148;28;1284;-25